Time;durP1;ratioP1;P1;durP2;ratioP2;P2;SDS_P1;SDS_P2;PMS_P1;PMS_P2;Temp;Humidity;BMP_temperature;BMP_pressure;BME280_temperature;BME280_humidity;BME280_pressure;Samples;Min_cycle;Max_cycle;Signal;HPM_P1;HPM_P2
2022/09/30 00:01:57;;;;;;;11.00;5.97;;;;;;;;;;5025770;28;20049;-83
2022/09/30 00:04:25;;;;;;;8.13;5.18;;;;;;;;;;5023521;28;20106;-83
2022/09/30 00:07:17;;;;;;;12.00;5.95;;;;;;;;;;5044806;28;20075;-83
2022/09/30 00:09:46;;;;;;;11.65;5.97;;;;;;;;;;5009601;28;20135;-83
2022/09/30 00:12:13;;;;;;;9.50;5.85;;;;;;;;;;5043794;28;20040;-83
2022/09/30 00:14:42;;;;;;;10.80;5.60;;;;;;;;;;5042272;28;21038;-83
2022/09/30 00:17:10;;;;;;;9.82;5.45;;;;;;;;;;5042852;28;20044;-83
2022/09/30 00:19:38;;;;;;;11.95;5.65;;;;;;;;;;5041648;28;20041;-83
2022/09/30 00:24:57;;;;;;;8.43;5.40;;;;;;;;;;5044615;28;20059;-83
2022/09/30 00:27:25;;;;;;;10.45;5.68;;;;;;;;;;5042812;28;20595;-83
2022/09/30 00:29:54;;;;;;;10.18;5.75;;;;;;;;;;5044451;28;20054;-83
2022/09/30 00:32:25;;;;;;;14.65;6.90;;;;;;;;;;5039797;28;20056;-83
2022/09/30 00:35:19;;;;;;;10.82;5.70;;;;;;;;;;5043154;28;20041;-84
2022/09/30 00:37:49;;;;;;;11.38;6.28;;;;;;;;;;5042275;28;20037;-83
2022/09/30 00:40:19;;;;;;;12.77;6.53;;;;;;;;;;5044789;28;20045;-83
2022/09/30 00:42:46;;;;;;;10.13;6.15;;;;;;;;;;5043689;28;20091;-83
2022/09/30 00:45:16;;;;;;;10.15;6.10;;;;;;;;;;5041840;28;20036;-83
2022/09/30 00:47:55;;;;;;;10.68;5.60;;;;;;;;;;5044765;28;20072;-83
2022/09/30 00:50:36;;;;;;;8.50;5.18;;;;;;;;;;5042258;28;20052;-83
2022/09/30 00:53:09;;;;;;;10.57;6.10;;;;;;;;;;5042373;28;20060;-83
2022/09/30 00:56:02;;;;;;;10.13;6.00;;;;;;;;;;5043125;28;20044;-83
2022/09/30 00:58:35;;;;;;;10.68;6.22;;;;;;;;;;5043024;28;20052;-83
2022/09/30 01:01:02;;;;;;;11.60;6.15;;;;;;;;;;5042577;28;20044;-83
2022/09/30 01:03:33;;;;;;;10.27;5.97;;;;;;;;;;5024869;28;20036;-83
2022/09/30 01:06:01;;;;;;;11.35;6.35;;;;;;;;;;5042972;28;20040;-83
2022/09/30 01:08:32;;;;;;;12.93;5.93;;;;;;;;;;5042304;28;20067;-83
2022/09/30 01:10:59;;;;;;;12.00;6.55;;;;;;;;;;5040963;28;20456;-83
2022/09/30 01:13:56;;;;;;;9.80;6.15;;;;;;;;;;5024623;28;20028;-83
2022/09/30 01:16:46;;;;;;;8.75;5.30;;;;;;;;;;5042460;28;20125;-83
2022/09/30 01:19:16;;;;;;;10.63;5.38;;;;;;;;;;4973466;28;20054;-83
2022/09/30 01:22:02;;;;;;;9.18;5.60;;;;;;;;;;4973429;28;20058;-83
2022/09/30 01:25:07;;;;;;;9.55;5.53;;;;;;;;;;4957479;28;20081;-83
2022/09/30 01:27:48;;;;;;;9.07;5.25;;;;;;;;;;4978768;28;20054;-83
2022/09/30 01:30:34;;;;;;;9.75;5.65;;;;;;;;;;4972546;28;20489;-83
2022/09/30 01:33:19;;;;;;;9.02;5.65;;;;;;;;;;4972878;28;20510;-83
2022/09/30 01:35:57;;;;;;;9.38;5.45;;;;;;;;;;4976805;28;20149;-83
2022/09/30 01:38:46;;;;;;;7.55;4.55;;;;;;;;;;4973836;28;20074;-83
2022/09/30 01:41:27;;;;;;;8.30;4.47;;;;;;;;;;4962342;28;20043;-83
2022/09/30 01:44:32;;;;;;;11.23;5.95;;;;;;;;;;5021197;28;20092;-83
2022/09/30 01:47:16;;;;;;;10.45;5.65;;;;;;;;;;5039789;28;20048;-83
2022/09/30 01:50:19;;;;;;;10.48;5.35;;;;;;;;;;5041916;28;20079;-83
2022/09/30 01:53:02;;;;;;;10.93;5.00;;;;;;;;;;5028107;28;20084;-83
2022/09/30 01:55:44;;;;;;;9.27;4.90;;;;;;;;;;5022959;28;20044;-83
2022/09/30 01:58:21;;;;;;;9.80;5.13;;;;;;;;;;5019238;28;20087;-83
2022/09/30 02:00:54;;;;;;;8.57;5.30;;;;;;;;;;5040348;28;20041;-83
2022/09/30 02:03:34;;;;;;;8.32;5.20;;;;;;;;;;5007495;28;20045;-83
2022/09/30 02:06:07;;;;;;;8.48;5.18;;;;;;;;;;5024149;28;20532;-83
2022/09/30 02:08:51;;;;;;;9.75;5.60;;;;;;;;;;5040783;28;20491;-82
2022/09/30 02:11:24;;;;;;;9.30;5.15;;;;;;;;;;5044895;28;20056;-82
2022/09/30 02:14:15;;;;;;;12.05;6.25;;;;;;;;;;5045510;28;20037;-82
2022/09/30 02:17:42;;;;;;;11.45;6.28;;;;;;;;;;5045144;28;20044;-83
2022/09/30 02:20:23;;;;;;;10.02;6.32;;;;;;;;;;4944205;29;20056;-83
2022/09/30 02:23:06;;;;;;;10.55;6.00;;;;;;;;;;4944584;28;20039;-82
2022/09/30 02:26:14;;;;;;;10.43;5.28;;;;;;;;;;4943235;28;20053;-83
2022/09/30 02:28:50;;;;;;;10.35;5.93;;;;;;;;;;4939831;29;20066;-83
2022/09/30 02:31:23;;;;;;;8.80;5.88;;;;;;;;;;4944697;29;20157;-83
2022/09/30 02:34:07;;;;;;;11.45;6.68;;;;;;;;;;4944782;29;20639;-83
2022/09/30 02:37:18;;;;;;;9.98;6.28;;;;;;;;;;4944303;28;21003;-83
2022/09/30 02:40:09;;;;;;;10.60;6.72;;;;;;;;;;4943591;28;20043;-83
2022/09/30 02:42:44;;;;;;;11.15;6.60;;;;;;;;;;4913485;29;20057;-82
2022/09/30 02:45:20;;;;;;;12.43;7.45;;;;;;;;;;4943828;29;20043;-83
2022/09/30 02:47:56;;;;;;;12.65;7.07;;;;;;;;;;4944494;29;20438;-83
2022/09/30 02:50:34;;;;;;;16.02;6.93;;;;;;;;;;4929157;29;20638;-83
2022/09/30 02:53:20;;;;;;;14.63;7.03;;;;;;;;;;4943657;28;20685;-83
2022/09/30 02:56:14;;;;;;;11.25;6.70;;;;;;;;;;4940770;28;20505;-83
2022/09/30 02:58:42;;;;;;;11.32;6.80;;;;;;;;;;4941194;28;20066;-83
2022/09/30 03:01:13;;;;;;;10.38;6.57;;;;;;;;;;4944030;28;20058;-83
2022/09/30 03:04:06;;;;;;;12.02;7.15;;;;;;;;;;4940894;28;20047;-83
2022/09/30 03:06:34;;;;;;;12.05;7.25;;;;;;;;;;4942496;28;20047;-83
2022/09/30 03:09:08;;;;;;;11.63;6.85;;;;;;;;;;4941423;28;20059;-83
2022/09/30 03:14:54;;;;;;;17.88;7.35;;;;;;;;;;4942228;28;20047;-83
2022/09/30 03:17:37;;;;;;;13.43;6.72;;;;;;;;;;4925883;28;20117;-83
2022/09/30 03:20:18;;;;;;;11.23;7.18;;;;;;;;;;4927538;28;20137;-83
2022/09/30 03:23:38;;;;;;;14.65;7.45;;;;;;;;;;4942174;28;20094;-83
2022/09/30 03:26:35;;;;;;;15.27;7.38;;;;;;;;;;4925278;29;20118;-83
2022/09/30 03:29:23;;;;;;;12.43;7.18;;;;;;;;;;4942091;28;20051;-83
2022/09/30 03:32:41;;;;;;;14.45;7.15;;;;;;;;;;4942607;28;20282;-83
2022/09/30 03:35:42;;;;;;;12.48;7.55;;;;;;;;;;4969303;28;20055;-83
2022/09/30 03:38:48;;;;;;;10.77;6.85;;;;;;;;;;5043262;28;20480;-83
2022/09/30 03:41:36;;;;;;;14.68;8.80;;;;;;;;;;5045390;28;20041;-83
2022/09/30 03:44:39;;;;;;;14.20;7.93;;;;;;;;;;5043863;28;20755;-83
2022/09/30 03:47:10;;;;;;;11.57;7.13;;;;;;;;;;5043571;28;20041;-83
2022/09/30 03:49:51;;;;;;;12.55;8.07;;;;;;;;;;5040657;28;20033;-83
2022/09/30 03:52:20;;;;;;;12.48;6.85;;;;;;;;;;5044228;28;20081;-83
2022/09/30 03:57:53;;;;;;;15.23;7.82;;;;;;;;;;5024738;28;20048;-83
2022/09/30 04:00:31;;;;;;;14.55;7.63;;;;;;;;;;5022217;28;20048;-83
2022/09/30 04:03:03;;;;;;;11.50;6.72;;;;;;;;;;5024828;28;20047;-83
2022/09/30 04:05:56;;;;;;;12.52;6.70;;;;;;;;;;5042275;28;20033;-83
2022/09/30 04:08:24;;;;;;;12.70;7.35;;;;;;;;;;5041970;28;20056;-83
2022/09/30 04:10:51;;;;;;;11.10;7.72;;;;;;;;;;5026445;28;20917;-83
2022/09/30 04:13:23;;;;;;;11.02;7.40;;;;;;;;;;5042770;28;20032;-82
2022/09/30 04:15:53;;;;;;;14.73;7.43;;;;;;;;;;5015339;28;20037;-83
2022/09/30 04:21:15;;;;;;;16.27;8.55;;;;;;;;;;5044849;28;20045;-82
2022/09/30 04:23:48;;;;;;;12.25;8.00;;;;;;;;;;5042164;28;20693;-83
2022/09/30 04:26:22;;;;;;;12.75;7.25;;;;;;;;;;5042348;28;20048;-83
2022/09/30 04:28:51;;;;;;;16.13;7.68;;;;;;;;;;5007929;28;20162;-83
2022/09/30 04:31:44;;;;;;;15.82;7.90;;;;;;;;;;5042532;28;20071;-83
2022/09/30 04:34:11;;;;;;;15.32;8.00;;;;;;;;;;5040865;28;20033;-83
2022/09/30 04:36:40;;;;;;;12.57;8.10;;;;;;;;;;5042254;28;20792;-83
2022/09/30 04:39:08;;;;;;;12.55;8.00;;;;;;;;;;5025756;28;20060;-83
2022/09/30 04:41:37;;;;;;;17.98;8.57;;;;;;;;;;5040448;28;20128;-83
2022/09/30 04:44:06;;;;;;;15.73;8.77;;;;;;;;;;5025085;28;20122;-83
2022/09/30 04:46:35;;;;;;;18.27;9.13;;;;;;;;;;5041048;28;20054;-83
2022/09/30 04:49:27;;;;;;;16.17;8.38;;;;;;;;;;5040773;28;20032;-83
2022/09/30 04:52:00;;;;;;;20.35;8.73;;;;;;;;;;5042356;28;20051;-83
2022/09/30 04:54:27;;;;;;;15.85;8.32;;;;;;;;;;5040613;28;20041;-84
2022/09/30 04:56:55;;;;;;;14.30;8.45;;;;;;;;;;5025363;28;20045;-81
2022/09/30 04:59:23;;;;;;;13.85;8.57;;;;;;;;;;5042251;28;20438;-82
2022/09/30 05:01:55;;;;;;;14.68;8.18;;;;;;;;;;5038120;28;20087;-82
2022/09/30 05:04:32;;;;;;;13.77;8.63;;;;;;;;;;5042037;28;20095;-82
2022/09/30 05:07:25;;;;;;;14.52;7.70;;;;;;;;;;5025053;28;20037;-83
2022/09/30 05:09:53;;;;;;;16.15;8.27;;;;;;;;;;5025092;28;20106;-83
2022/09/30 05:12:25;;;;;;;14.02;7.78;;;;;;;;;;5041162;28;20090;-82
2022/09/30 05:14:54;;;;;;;15.90;8.32;;;;;;;;;;5041559;28;20508;-82
2022/09/30 05:17:48;;;;;;;12.48;7.38;;;;;;;;;;5042884;28;20167;-84
2022/09/30 05:20:16;;;;;;;12.65;7.72;;;;;;;;;;5024130;28;20040;-84
2022/09/30 05:22:54;;;;;;;12.68;8.27;;;;;;;;;;5043204;28;20040;-84
2022/09/30 05:25:25;;;;;;;14.18;7.45;;;;;;;;;;5043175;28;20045;-83
2022/09/30 05:27:57;;;;;;;13.07;8.07;;;;;;;;;;5025575;28;20158;-84
2022/09/30 05:30:26;;;;;;;14.02;7.63;;;;;;;;;;5042030;28;20041;-83
2022/09/30 05:32:54;;;;;;;14.43;8.05;;;;;;;;;;5039283;28;20179;-84
2022/09/30 05:35:28;;;;;;;12.57;7.88;;;;;;;;;;5038026;28;20034;-83
2022/09/30 05:38:00;;;;;;;12.57;7.75;;;;;;;;;;5017594;28;20041;-84
2022/09/30 05:40:31;;;;;;;12.73;8.07;;;;;;;;;;5039899;28;20041;-83
2022/09/30 05:43:23;;;;;;;18.30;7.63;;;;;;;;;;5044209;28;20908;-83
2022/09/30 05:45:56;;;;;;;16.70;7.82;;;;;;;;;;5019767;28;20047;-83
2022/09/30 05:48:24;;;;;;;14.13;7.70;;;;;;;;;;5044983;28;20040;-83
2022/09/30 05:50:56;;;;;;;14.65;7.60;;;;;;;;;;5029767;28;20492;-83
2022/09/30 05:53:24;;;;;;;15.40;7.70;;;;;;;;;;5047217;28;20047;-83
2022/09/30 05:55:52;;;;;;;14.25;7.72;;;;;;;;;;5045874;28;20069;-83
2022/09/30 05:58:20;;;;;;;14.45;8.25;;;;;;;;;;5046478;28;20040;-83
2022/09/30 06:01:14;;;;;;;14.40;7.78;;;;;;;;;;5047217;28;20152;-83
2022/09/30 06:03:48;;;;;;;13.10;8.43;;;;;;;;;;5044312;28;20052;-82
2022/09/30 06:06:16;;;;;;;13.80;8.60;;;;;;;;;;5044948;28;20051;-82
2022/09/30 06:08:44;;;;;;;21.52;9.00;;;;;;;;;;5042611;28;20064;-82
2022/09/30 06:11:17;;;;;;;14.60;8.60;;;;;;;;;;5028431;28;20047;-82
2022/09/30 06:13:48;;;;;;;14.35;9.20;;;;;;;;;;5044781;28;20041;-83
2022/09/30 06:16:18;;;;;;;12.82;7.82;;;;;;;;;;5044698;28;20037;-82
2022/09/30 06:18:46;;;;;;;12.27;7.85;;;;;;;;;;5045782;28;20040;-82
2022/09/30 06:21:16;;;;;;;16.83;8.77;;;;;;;;;;5047305;28;20075;-82
2022/09/30 06:23:43;;;;;;;14.02;8.77;;;;;;;;;;5047356;28;20037;-82
2022/09/30 06:26:13;;;;;;;17.90;10.20;;;;;;;;;;5046138;28;20051;-82
2022/09/30 06:28:40;;;;;;;17.67;10.02;;;;;;;;;;5023092;28;20041;-82
2022/09/30 06:31:14;;;;;;;19.15;9.30;;;;;;;;;;5045845;28;20500;-82
2022/09/30 06:33:42;;;;;;;17.15;9.70;;;;;;;;;;5002322;28;20033;-82
2022/09/30 06:36:10;;;;;;;17.58;9.23;;;;;;;;;;5045181;28;20044;-82
2022/09/30 06:38:44;;;;;;;14.38;8.85;;;;;;;;;;5045397;28;20496;-82
2022/09/30 06:41:18;;;;;;;14.25;9.50;;;;;;;;;;5028178;28;20052;-83
2022/09/30 06:43:46;;;;;;;16.52;9.25;;;;;;;;;;5043646;28;20052;-82
2022/09/30 06:46:58;;;;;;;18.42;9.43;;;;;;;;;;5045033;28;20033;-82
2022/09/30 06:49:35;;;;;;;16.27;9.88;;;;;;;;;;5047158;28;20041;-82
2022/09/30 06:52:15;;;;;;;19.30;11.05;;;;;;;;;;5046430;28;20110;-83
2022/09/30 06:55:08;;;;;;;18.75;10.63;;;;;;;;;;5033020;28;20029;-82
2022/09/30 06:57:35;;;;;;;20.00;11.02;;;;;;;;;;5045680;28;20435;-82
2022/09/30 07:00:04;;;;;;;22.23;11.63;;;;;;;;;;5046575;28;20040;-82
2022/09/30 07:02:33;;;;;;;18.75;10.85;;;;;;;;;;5045639;28;20051;-81
2022/09/30 07:05:06;;;;;;;21.65;10.88;;;;;;;;;;5045518;28;20029;-82
2022/09/30 07:07:35;;;;;;;20.30;11.52;;;;;;;;;;5046497;28;20045;-82
2022/09/30 07:10:04;;;;;;;19.55;11.02;;;;;;;;;;5046093;28;20044;-82
2022/09/30 07:12:31;;;;;;;23.35;11.70;;;;;;;;;;5045062;28;20540;-83
2022/09/30 07:15:05;;;;;;;21.85;12.02;;;;;;;;;;5046640;28;20037;-82
2022/09/30 07:17:39;;;;;;;24.30;12.20;;;;;;;;;;5046683;28;20049;-82
2022/09/30 07:20:08;;;;;;;21.67;11.93;;;;;;;;;;5046008;28;20447;-82
2022/09/30 07:22:35;;;;;;;25.05;12.13;;;;;;;;;;5044460;28;20045;-82
2022/09/30 07:25:04;;;;;;;19.75;11.38;;;;;;;;;;5012849;28;20044;-82
2022/09/30 07:27:32;;;;;;;22.40;11.90;;;;;;;;;;5046567;28;20529;-82
2022/09/30 07:30:00;;;;;;;20.25;12.18;;;;;;;;;;5044191;28;20032;-82
2022/09/30 07:32:37;;;;;;;24.13;11.77;;;;;;;;;;5044753;28;20041;-82
2022/09/30 07:35:06;;;;;;;20.25;10.95;;;;;;;;;;5046525;28;20128;-82
2022/09/30 07:37:39;;;;;;;24.08;12.95;;;;;;;;;;5045731;28;20094;-82
2022/09/30 07:40:08;;;;;;;20.00;11.32;;;;;;;;;;5046534;28;20053;-82
2022/09/30 07:43:00;;;;;;;22.95;12.43;;;;;;;;;;5044742;28;20123;-82
2022/09/30 07:51:23;;;;;;;26.40;12.90;;;;;;;;;;5046617;28;20044;-82
2022/09/30 07:53:54;;;;;;;24.00;12.50;;;;;;;;;;5028414;28;20122;-83
2022/09/30 07:56:23;;;;;;;26.00;12.95;;;;;;;;;;5045388;28;20041;-82
2022/09/30 07:59:16;;;;;;;24.60;13.32;;;;;;;;;;5046494;28;20032;-83
2022/09/30 08:02:15;;;;;;;25.95;12.55;;;;;;;;;;5045445;28;20044;-82
2022/09/30 08:04:44;;;;;;;24.88;12.95;;;;;;;;;;5046066;28;20120;-82
2022/09/30 08:07:14;;;;;;;26.70;13.93;;;;;;;;;;5045646;28;20044;-83
2022/09/30 08:09:42;;;;;;;27.65;15.13;;;;;;;;;;5043693;28;20531;-83
2022/09/30 08:12:09;;;;;;;30.02;13.43;;;;;;;;;;5044432;28;20068;-83
2022/09/30 08:14:37;;;;;;;29.73;13.75;;;;;;;;;;5043720;28;20064;-83
2022/09/30 08:17:09;;;;;;;24.17;13.35;;;;;;;;;;5045358;28;20045;-83
2022/09/30 08:19:40;;;;;;;25.60;14.18;;;;;;;;;;5045474;28;20126;-83
2022/09/30 08:22:09;;;;;;;24.58;13.68;;;;;;;;;;5028560;28;20453;-82
2022/09/30 08:25:02;;;;;;;28.00;13.50;;;;;;;;;;5043696;28;20025;-83
2022/09/30 08:27:55;;;;;;;27.48;13.55;;;;;;;;;;5043528;28;20052;-83
2022/09/30 08:30:48;;;;;;;24.00;13.68;;;;;;;;;;5044064;28;20044;-83
2022/09/30 08:33:43;;;;;;;23.08;12.35;;;;;;;;;;5044971;28;20049;-83
2022/09/30 08:36:15;;;;;;;20.92;12.23;;;;;;;;;;5026789;28;20122;-83
2022/09/30 08:39:11;;;;;;;25.30;11.45;;;;;;;;;;5043574;28;20044;-83
2022/09/30 08:42:05;;;;;;;17.45;10.50;;;;;;;;;;5025370;28;20033;-83
2022/09/30 08:45:09;;;;;;;16.85;10.20;;;;;;;;;;5042615;28;20052;-82
2022/09/30 08:47:55;;;;;;;16.48;10.07;;;;;;;;;;5043049;28;20063;-83
2022/09/30 08:50:46;;;;;;;15.88;9.48;;;;;;;;;;5043479;28;20045;-83
2022/09/30 08:53:23;;;;;;;12.98;7.25;;;;;;;;;;5042068;28;20098;-83
2022/09/30 08:55:53;;;;;;;13.25;7.75;;;;;;;;;;5044050;28;20508;-83
2022/09/30 08:58:35;;;;;;;17.20;7.50;;;;;;;;;;5026422;28;20081;-83
2022/09/30 09:01:30;;;;;;;10.80;6.93;;;;;;;;;;5043207;28;20045;-83
2022/09/30 09:04:24;;;;;;;13.60;7.50;;;;;;;;;;5043381;28;20064;-83
2022/09/30 09:07:02;;;;;;;11.38;7.22;;;;;;;;;;5045399;28;20052;-82
2022/09/30 09:09:45;;;;;;;13.25;7.43;;;;;;;;;;5027448;28;20045;-83
2022/09/30 09:13:01;;;;;;;12.68;6.53;;;;;;;;;;5029888;28;20056;-83
2022/09/30 09:15:45;;;;;;;9.95;5.50;;;;;;;;;;5030512;28;20041;-83
2022/09/30 09:18:33;;;;;;;9.00;5.78;;;;;;;;;;5043305;28;20040;-83
2022/09/30 09:24:26;;;;;;;9.55;4.68;;;;;;;;;;5044915;28;20049;-83
2022/09/30 09:26:55;;;;;;;6.93;3.78;;;;;;;;;;5043489;28;20048;-83
2022/09/30 09:29:42;;;;;;;6.70;3.70;;;;;;;;;;5024077;28;20130;-83
2022/09/30 09:32:38;;;;;;;6.03;3.20;;;;;;;;;;5042208;28;20128;-83
2022/09/30 09:35:14;;;;;;;5.35;2.95;;;;;;;;;;5043166;28;20127;-83
2022/09/30 09:38:23;;;;;;;3.60;1.85;;;;;;;;;;5043585;28;20563;-83
2022/09/30 09:41:27;;;;;;;2.40;1.20;;;;;;;;;;5042814;28;20084;-83
2022/09/30 09:44:36;;;;;;;7.75;1.70;;;;;;;;;;5044772;28;20037;-83
2022/09/30 09:47:04;;;;;;;2.88;1.60;;;;;;;;;;5043126;28;20048;-83
2022/09/30 09:49:38;;;;;;;3.35;1.70;;;;;;;;;;5023287;28;20053;-83
2022/09/30 09:52:13;;;;;;;3.28;1.52;;;;;;;;;;5044045;28;20564;-83
2022/09/30 09:54:44;;;;;;;3.90;1.55;;;;;;;;;;5042936;28;20073;-83
2022/09/30 09:57:23;;;;;;;3.70;1.40;;;;;;;;;;5025236;28;20136;-83
2022/09/30 10:03:23;;;;;;;4.20;1.58;;;;;;;;;;5043576;28;20045;-83
2022/09/30 10:06:15;;;;;;;3.25;1.50;;;;;;;;;;5042517;28;20467;-83
2022/09/30 10:08:55;;;;;;;3.25;1.33;;;;;;;;;;5043117;28;20137;-83
2022/09/30 10:11:29;;;;;;;3.53;1.65;;;;;;;;;;5026369;28;20512;-82
2022/09/30 10:14:01;;;;;;;3.50;1.48;;;;;;;;;;5043051;28;20126;-83
2022/09/30 10:16:34;;;;;;;6.38;1.40;;;;;;;;;;5024271;28;20067;-83
2022/09/30 10:19:04;;;;;;;2.38;1.10;;;;;;;;;;5025604;28;20096;-83
2022/09/30 10:21:35;;;;;;;3.33;1.25;;;;;;;;;;5024925;28;20151;-83
2022/09/30 10:24:25;;;;;;;2.55;1.20;;;;;;;;;;5025334;28;20131;-83
2022/09/30 10:26:57;;;;;;;3.42;1.40;;;;;;;;;;5027361;28;20075;-83
2022/09/30 10:29:33;;;;;;;2.83;1.30;;;;;;;;;;5042928;28;20049;-83
2022/09/30 10:32:06;;;;;;;3.47;1.50;;;;;;;;;;5042208;28;20186;-83
2022/09/30 10:34:42;;;;;;;4.18;1.35;;;;;;;;;;5045582;28;20033;-82
2022/09/30 10:37:14;;;;;;;2.60;1.48;;;;;;;;;;5045140;28;20041;-83
2022/09/30 10:39:43;;;;;;;5.32;1.60;;;;;;;;;;5028515;28;20045;-83
2022/09/30 10:42:34;;;;;;;2.08;1.20;;;;;;;;;;5046621;28;20055;-83
2022/09/30 10:45:05;;;;;;;3.38;1.30;;;;;;;;;;5047537;28;20041;-83
2022/09/30 10:47:32;;;;;;;3.30;1.85;;;;;;;;;;5048737;28;20215;-82
2022/09/30 10:50:27;;;;;;;5.85;1.90;;;;;;;;;;5028903;28;20048;-83
2022/09/30 10:53:03;;;;;;;3.50;1.60;;;;;;;;;;5047539;28;20072;-82
2022/09/30 10:55:41;;;;;;;4.13;2.20;;;;;;;;;;5045730;28;20699;-83
2022/09/30 11:01:45;;;;;;;3.50;1.70;;;;;;;;;;5044474;28;20099;-83
2022/09/30 11:04:26;;;;;;;3.28;1.50;;;;;;;;;;5027215;28;20040;-83
2022/09/30 11:07:00;;;;;;;6.28;1.65;;;;;;;;;;5047181;28;20601;-83
2022/09/30 11:09:37;;;;;;;2.63;1.20;;;;;;;;;;5044835;28;20948;-83
2022/09/30 11:12:17;;;;;;;3.50;1.50;;;;;;;;;;5029871;28;20908;-83
2022/09/30 11:15:14;;;;;;;3.13;1.58;;;;;;;;;;5025865;28;20105;-83
2022/09/30 11:17:53;;;;;;;4.47;1.48;;;;;;;;;;5046346;28;20048;-83
2022/09/30 11:20:38;;;;;;;6.07;1.50;;;;;;;;;;5043232;28;20037;-83
2022/09/30 11:23:36;;;;;;;3.30;1.45;;;;;;;;;;5042675;28;20553;-84
2022/09/30 11:26:13;;;;;;;2.65;1.48;;;;;;;;;;5046212;28;20044;-84
2022/09/30 11:28:49;;;;;;;3.72;1.75;;;;;;;;;;5045514;28;20901;-84
2022/09/30 11:31:31;;;;;;;2.45;1.30;;;;;;;;;;5019728;28;20552;-84
2022/09/30 11:34:37;;;;;;;3.70;1.50;;;;;;;;;;5045756;28;20078;-84
2022/09/30 11:37:34;;;;;;;3.03;1.42;;;;;;;;;;5044545;28;20045;-84
2022/09/30 11:40:57;;;;;;;2.75;1.40;;;;;;;;;;5046659;28;20103;-84
2022/09/30 11:44:06;;;;;;;4.35;1.42;;;;;;;;;;5043609;28;20400;-83
2022/09/30 11:46:52;;;;;;;2.97;1.13;;;;;;;;;;5019865;28;20439;-83
2022/09/30 11:49:44;;;;;;;2.63;1.10;;;;;;;;;;5045603;28;20056;-84
2022/09/30 11:52:34;;;;;;;3.20;1.00;;;;;;;;;;5044583;28;20048;-83
2022/09/30 11:55:08;;;;;;;2.22;1.10;;;;;;;;;;5046602;28;20443;-84
2022/09/30 11:57:46;;;;;;;3.38;0.98;;;;;;;;;;5043502;28;20041;-84
2022/09/30 12:00:16;;;;;;;3.22;0.93;;;;;;;;;;5017572;28;20055;-83
2022/09/30 12:02:53;;;;;;;5.47;1.08;;;;;;;;;;5044799;28;20041;-83
2022/09/30 12:05:55;;;;;;;2.20;0.90;;;;;;;;;;5044729;28;20091;-83
2022/09/30 12:08:58;;;;;;;1.80;1.02;;;;;;;;;;4957989;28;20077;-84
2022/09/30 12:11:34;;;;;;;2.10;1.10;;;;;;;;;;4960861;28;20120;-83
2022/09/30 12:14:13;;;;;;;2.65;1.00;;;;;;;;;;4961725;28;20046;-83
2022/09/30 12:16:47;;;;;;;1.80;1.02;;;;;;;;;;4946804;28;20050;-83
2022/09/30 12:19:35;;;;;;;2.08;1.00;;;;;;;;;;4962863;28;20478;-83
2022/09/30 12:22:16;;;;;;;3.42;1.30;;;;;;;;;;4923853;28;20062;-83
2022/09/30 12:24:46;;;;;;;2.35;1.00;;;;;;;;;;4960345;28;20676;-83
2022/09/30 12:27:40;;;;;;;2.45;1.35;;;;;;;;;;4945036;28;20057;-83
2022/09/30 12:30:19;;;;;;;2.95;1.40;;;;;;;;;;4944488;28;20514;-86
2022/09/30 12:33:25;;;;;;;6.85;1.52;;;;;;;;;;4961987;28;20059;-84
2022/09/30 12:36:07;;;;;;;3.30;1.60;;;;;;;;;;4942134;28;20302;-85
2022/09/30 12:39:41;;;;;;;6.03;1.63;;;;;;;;;;4963173;28;20111;-84
2022/09/30 12:42:47;;;;;;;3.08;1.90;;;;;;;;;;4914150;29;20146;-85
2022/09/30 12:45:29;;;;;;;3.72;1.88;;;;;;;;;;4952529;28;20058;-84
2022/09/30 12:48:01;;;;;;;6.40;2.15;;;;;;;;;;4957361;28;20466;-86
2022/09/30 12:50:41;;;;;;;3.97;2.13;;;;;;;;;;4936603;28;20249;-86
2022/09/30 12:53:21;;;;;;;5.40;2.63;;;;;;;;;;4969428;28;20117;-86
2022/09/30 12:55:51;;;;;;;5.93;2.88;;;;;;;;;;4965192;28;20043;-85
2022/09/30 12:58:33;;;;;;;4.75;2.42;;;;;;;;;;4957001;28;20053;-87
2022/09/30 13:01:12;;;;;;;4.53;2.88;;;;;;;;;;4955193;28;20108;-87
2022/09/30 13:03:52;;;;;;;4.32;3.00;;;;;;;;;;4941837;28;20462;-87
2022/09/30 13:06:20;;;;;;;4.90;3.15;;;;;;;;;;4969082;28;20042;-85
2022/09/30 13:09:19;;;;;;;4.88;2.70;;;;;;;;;;4970806;28;20043;-86
2022/09/30 13:12:23;;;;;;;6.35;2.58;;;;;;;;;;4955608;28;20467;-85
2022/09/30 13:15:28;;;;;;;6.38;2.85;;;;;;;;;;4958138;28;20054;-86
2022/09/30 13:18:25;;;;;;;4.60;2.92;;;;;;;;;;4890938;29;20062;-85
2022/09/30 13:21:20;;;;;;;5.32;2.85;;;;;;;;;;4905753;29;20126;-85
2022/09/30 13:23:53;;;;;;;4.72;2.20;;;;;;;;;;4922151;29;20052;-85
2022/09/30 13:26:39;;;;;;;5.18;2.42;;;;;;;;;;4923036;29;20227;-85
2022/09/30 13:29:34;;;;;;;6.03;3.08;;;;;;;;;;4924281;29;20613;-85
2022/09/30 13:32:03;;;;;;;4.00;2.00;;;;;;;;;;4906887;29;20059;-86
2022/09/30 13:34:59;;;;;;;6.57;2.30;;;;;;;;;;4922080;29;20047;-86
2022/09/30 13:37:38;;;;;;;4.57;2.30;;;;;;;;;;4923825;29;20050;-86
2022/09/30 13:40:30;;;;;;;3.92;2.15;;;;;;;;;;4885669;29;20064;-85
2022/09/30 13:43:39;;;;;;;4.68;2.22;;;;;;;;;;4888355;29;20056;-85
2022/09/30 13:46:21;;;;;;;5.43;2.63;;;;;;;;;;4869257;29;20718;-86
2022/09/30 13:49:03;;;;;;;3.85;2.50;;;;;;;;;;4884007;29;20060;-85
2022/09/30 13:51:44;;;;;;;4.20;2.00;;;;;;;;;;4870861;29;20056;-85
2022/09/30 13:54:32;;;;;;;5.55;2.58;;;;;;;;;;4898339;28;20569;-85
2022/09/30 13:57:14;;;;;;;5.75;2.20;;;;;;;;;;4955745;28;20039;-85
2022/09/30 13:59:59;;;;;;;8.65;2.67;;;;;;;;;;4952397;28;20074;-84
2022/09/30 14:02:44;;;;;;;21.02;2.78;;;;;;;;;;4955774;28;20047;-84
2022/09/30 14:05:34;;;;;;;22.80;3.80;;;;;;;;;;4939536;28;20055;-85
2022/09/30 14:08:33;;;;;;;14.00;2.47;;;;;;;;;;4944044;28;20058;-85
2022/09/30 14:11:18;;;;;;;19.88;2.72;;;;;;;;;;4943554;28;20059;-84
2022/09/30 14:14:38;;;;;;;25.90;3.38;;;;;;;;;;4959311;28;20110;-84
2022/09/30 14:17:21;;;;;;;13.38;3.10;;;;;;;;;;4906942;29;20445;-85
2022/09/30 14:20:08;;;;;;;14.90;3.60;;;;;;;;;;4935828;29;20109;-84
2022/09/30 14:22:36;;;;;;;34.25;3.85;;;;;;;;;;4935548;29;20114;-84
2022/09/30 14:25:16;;;;;;;41.20;6.05;;;;;;;;;;4934949;29;20047;-85
2022/09/30 14:28:03;;;;;;;35.75;4.18;;;;;;;;;;4920619;29;20063;-86
2022/09/30 14:31:11;;;;;;;8.25;3.20;;;;;;;;;;4934527;29;20186;-85
2022/09/30 14:33:44;;;;;;;46.13;4.72;;;;;;;;;;4934788;29;20059;-85
2022/09/30 14:36:18;;;;;;;11.75;2.95;;;;;;;;;;4935756;29;20044;-85
2022/09/30 14:39:19;;;;;;;6.40;3.58;;;;;;;;;;4933531;29;20665;-85
2022/09/30 14:41:52;;;;;;;6.72;3.45;;;;;;;;;;4917209;29;20051;-84
2022/09/30 14:44:28;;;;;;;7.20;3.35;;;;;;;;;;4918459;29;20063;-84
2022/09/30 14:47:21;;;;;;;8.02;3.45;;;;;;;;;;4933599;29;20110;-83
2022/09/30 14:49:49;;;;;;;6.95;3.08;;;;;;;;;;4915962;28;20043;-84
2022/09/30 14:52:44;;;;;;;5.53;3.45;;;;;;;;;;5016163;28;20108;-83
2022/09/30 14:55:48;;;;;;;6.82;3.33;;;;;;;;;;5047784;28;20525;-84
2022/09/30 14:58:20;;;;;;;6.53;3.67;;;;;;;;;;5025835;28;20102;-84
2022/09/30 15:01:05;;;;;;;15.20;3.75;;;;;;;;;;5046963;28;20033;-84
2022/09/30 15:03:40;;;;;;;4.88;3.30;;;;;;;;;;5046027;28;20072;-84
2022/09/30 15:06:27;;;;;;;16.55;4.03;;;;;;;;;;5028556;28;20408;-84
2022/09/30 15:09:27;;;;;;;11.32;3.00;;;;;;;;;;5010745;28;20523;-84
2022/09/30 15:11:57;;;;;;;5.53;3.40;;;;;;;;;;5028270;28;20049;-85
2022/09/30 15:14:26;;;;;;;8.00;3.05;;;;;;;;;;5027241;28;20048;-85
2022/09/30 15:17:28;;;;;;;8.85;3.30;;;;;;;;;;5044884;28;20037;-84
2022/09/30 15:19:57;;;;;;;8.90;3.22;;;;;;;;;;5046017;28;20449;-84
2022/09/30 15:22:26;;;;;;;9.40;3.17;;;;;;;;;;5047169;28;20059;-84
2022/09/30 15:24:56;;;;;;;4.10;2.78;;;;;;;;;;5045233;28;20357;-85
2022/09/30 15:27:28;;;;;;;6.65;3.30;;;;;;;;;;5045680;28;20060;-83
2022/09/30 15:30:27;;;;;;;10.82;3.25;;;;;;;;;;5021553;28;20112;-83
2022/09/30 15:33:01;;;;;;;6.03;2.92;;;;;;;;;;5024244;28;20426;-85
2022/09/30 15:35:28;;;;;;;6.03;3.13;;;;;;;;;;5044752;28;20186;-85
2022/09/30 15:38:29;;;;;;;6.60;3.60;;;;;;;;;;5040465;28;20033;-84
2022/09/30 15:41:14;;;;;;;6.28;3.42;;;;;;;;;;4938212;28;20074;-84
2022/09/30 15:43:50;;;;;;;4.82;2.95;;;;;;;;;;4940750;28;20142;-84
2022/09/30 15:46:26;;;;;;;5.65;3.00;;;;;;;;;;4942417;29;20595;-84
2022/09/30 15:49:02;;;;;;;7.45;3.08;;;;;;;;;;4942583;29;20702;-84
2022/09/30 15:51:39;;;;;;;6.63;3.35;;;;;;;;;;4941365;28;20122;-84
2022/09/30 15:54:14;;;;;;;6.32;3.50;;;;;;;;;;4927021;29;20055;-84
2022/09/30 15:56:48;;;;;;;6.35;3.30;;;;;;;;;;4942246;28;20055;-84
2022/09/30 15:59:15;;;;;;;5.22;3.28;;;;;;;;;;4943315;29;20054;-84
2022/09/30 16:01:45;;;;;;;6.40;3.58;;;;;;;;;;4943550;29;20055;-84
2022/09/30 16:04:17;;;;;;;5.95;3.10;;;;;;;;;;4944832;29;20059;-83
2022/09/30 16:07:14;;;;;;;4.68;3.50;;;;;;;;;;4944377;29;20473;-85
2022/09/30 16:09:47;;;;;;;5.07;3.47;;;;;;;;;;4930454;29;20059;-84
2022/09/30 16:12:19;;;;;;;7.65;3.80;;;;;;;;;;4944242;29;20059;-84
2022/09/30 16:14:58;;;;;;;6.78;3.92;;;;;;;;;;4943485;29;20101;-84
2022/09/30 16:17:37;;;;;;;5.70;3.22;;;;;;;;;;5010050;28;20582;-84
2022/09/30 16:20:24;;;;;;;7.60;3.38;;;;;;;;;;5008752;28;20500;-84